createdAt,value
2023-03-10T00:00:46.986Z,6.10
2023-03-10T00:03:14.156Z,5.25
2023-03-10T00:05:41.428Z,10.05
2023-03-10T00:08:08.651Z,7.55
2023-03-10T00:10:35.829Z,7.43
2023-03-10T00:13:03.071Z,6.90
2023-03-10T00:15:31.659Z,9.45
2023-03-10T00:17:58.881Z,6.25
2023-03-10T00:20:26.540Z,7.45
2023-03-10T00:22:53.709Z,6.72
2023-03-10T00:25:20.855Z,6.22
2023-03-10T00:27:48.015Z,6.18
2023-03-10T00:30:15.477Z,8.63
2023-03-10T00:32:42.710Z,8.30
2023-03-10T00:35:10.071Z,8.80
2023-03-10T00:37:38.250Z,7.85
2023-03-10T00:40:14.402Z,10.30
2023-03-10T00:42:42.072Z,7.07
2023-03-10T00:45:09.584Z,7.43
2023-03-10T00:47:36.894Z,8.82
2023-03-10T00:50:04.749Z,5.72
2023-03-10T00:52:33.169Z,6.10
2023-03-10T00:55:01.493Z,6.65
2023-03-10T00:57:28.809Z,7.18
2023-03-10T00:59:56.018Z,5.47
2023-03-10T01:02:23.460Z,8.45
2023-03-10T01:04:50.775Z,4.95
2023-03-10T01:07:17.995Z,4.88
2023-03-10T01:09:45.273Z,9.93
2023-03-10T01:12:12.502Z,7.50
2023-03-10T01:14:39.737Z,6.75
2023-03-10T01:17:06.925Z,11.93
2023-03-10T01:19:34.178Z,7.25
2023-03-10T01:22:01.446Z,9.90
2023-03-10T01:24:28.595Z,7.05
2023-03-10T01:26:55.731Z,6.07
2023-03-10T01:29:22.901Z,5.00
2023-03-10T01:31:50.136Z,4.78
2023-03-10T01:34:17.291Z,7.53
2023-03-10T01:36:44.399Z,6.70
2023-03-10T01:39:11.854Z,8.80
2023-03-10T01:41:39.886Z,5.72
2023-03-10T01:44:13.714Z,3.83
2023-03-10T01:46:45.662Z,5.28
2023-03-10T01:49:12.877Z,8.15
2023-03-10T01:51:41.856Z,8.90
2023-03-10T01:54:12.059Z,6.07
2023-03-10T01:56:39.355Z,5.70
2023-03-10T01:59:06.831Z,8.10
2023-03-10T02:01:34.195Z,4.47
2023-03-10T02:04:02.735Z,5.75
2023-03-10T02:06:30.028Z,6.00
2023-03-10T02:08:58.867Z,7.25
2023-03-10T02:11:26.228Z,6.63
2023-03-10T02:13:53.943Z,7.95
2023-03-10T02:16:22.366Z,6.85
2023-03-10T02:18:50.279Z,7.78
2023-03-10T02:21:25.418Z,3.78
2023-03-10T02:24:04.580Z,4.97
2023-03-10T02:26:40.993Z,9.32
2023-03-10T02:29:10.415Z,5.15
2023-03-10T02:31:37.735Z,4.20
2023-03-10T02:34:06.774Z,4.28
2023-03-10T02:36:34.008Z,7.13
2023-03-10T02:39:01.216Z,5.43
2023-03-10T02:41:33.093Z,4.20
2023-03-10T02:44:01.626Z,3.38
2023-03-10T02:46:29.325Z,5.70
2023-03-10T02:48:59.798Z,4.13
2023-03-10T02:51:38.298Z,7.03
2023-03-10T02:54:05.723Z,2.67
2023-03-10T02:56:34.304Z,4.15
2023-03-10T02:59:02.161Z,5.97
2023-03-10T03:01:30.556Z,2.40
2023-03-10T03:03:58.186Z,3.50
2023-03-10T03:06:25.594Z,2.50
2023-03-10T03:08:53.007Z,4.00
2023-03-10T03:11:20.235Z,5.88
2023-03-10T03:13:47.497Z,3.10
2023-03-10T03:16:14.800Z,5.47
2023-03-10T03:18:42.099Z,4.47
2023-03-10T03:21:11.127Z,3.85
2023-03-10T03:23:39.215Z,2.45
2023-03-10T03:26:06.855Z,3.33
2023-03-10T03:28:34.082Z,2.17
2023-03-10T03:31:02.037Z,7.15
2023-03-10T03:33:29.197Z,3.17
2023-03-10T03:35:56.370Z,1.92
2023-03-10T03:38:23.571Z,2.50
2023-03-10T03:40:50.740Z,3.95
2023-03-10T03:43:17.873Z,4.30
2023-03-10T03:45:45.061Z,3.33
2023-03-10T03:48:14.508Z,0.82
2023-03-10T03:50:41.695Z,4.40
2023-03-10T03:53:08.828Z,3.97
2023-03-10T03:55:36.026Z,2.45
2023-03-10T03:58:03.255Z,2.40
2023-03-10T04:00:30.518Z,3.65
2023-03-10T04:02:57.715Z,2.08
2023-03-10T04:05:24.855Z,2.25
2023-03-10T04:07:52.410Z,3.03
2023-03-10T04:10:21.012Z,1.77
2023-03-10T04:12:48.413Z,1.10
2023-03-10T04:15:15.621Z,0.68
2023-03-10T04:17:42.898Z,0.73
2023-03-10T04:20:13.225Z,0.65
2023-03-10T04:22:40.789Z,0.90
2023-03-10T04:25:08.489Z,0.85
2023-03-10T04:27:36.112Z,0.95
2023-03-10T04:30:03.324Z,1.40
2023-03-10T04:32:30.500Z,0.75
2023-03-10T04:34:57.686Z,1.02
2023-03-10T04:37:24.917Z,0.60
2023-03-10T04:39:52.377Z,0.50
2023-03-10T04:42:19.588Z,0.95
2023-03-10T04:44:47.018Z,0.73
2023-03-10T04:47:14.152Z,1.55
2023-03-10T04:49:41.551Z,0.20
2023-03-10T04:52:08.674Z,1.90
2023-03-10T04:54:35.887Z,0.47
2023-03-10T04:57:03.218Z,0.73
2023-03-10T04:59:30.428Z,0.65
2023-03-10T05:01:57.628Z,1.23
2023-03-10T05:04:24.907Z,0.35
2023-03-10T05:06:52.687Z,0.77
2023-03-10T05:09:19.928Z,1.45
2023-03-10T05:11:47.058Z,1.00
2023-03-10T05:14:14.716Z,2.35
2023-03-10T05:16:41.849Z,0.38
2023-03-10T05:19:09.056Z,1.63
2023-03-10T05:21:36.255Z,0.30
2023-03-10T05:24:03.466Z,0.22
2023-03-10T05:26:33.473Z,0.45
2023-03-10T05:29:01.952Z,0.63
2023-03-10T05:31:29.278Z,0.60
2023-03-10T05:33:56.722Z,0.20
2023-03-10T05:36:23.900Z,1.83
2023-03-10T05:38:51.201Z,0.40
2023-03-10T05:41:18.587Z,1.98
2023-03-10T05:43:45.981Z,0.40
2023-03-10T05:46:13.489Z,0.30
2023-03-10T05:48:40.714Z,1.23
2023-03-10T05:51:09.729Z,0.28
2023-03-10T05:53:37.511Z,0.10
2023-03-10T05:56:12.398Z,0.13
2023-03-10T05:58:39.570Z,0.20
2023-03-10T06:01:07.667Z,2.50
2023-03-10T06:03:35.329Z,0.82
2023-03-10T06:06:02.958Z,1.45
2023-03-10T06:08:33.046Z,2.05
2023-03-10T06:11:00.562Z,1.27
2023-03-10T06:13:27.828Z,0.65
2023-03-10T06:15:58.456Z,1.42
2023-03-10T06:18:26.368Z,0.60
2023-03-10T06:20:53.740Z,0.73
2023-03-10T06:23:21.259Z,0.90
2023-03-10T06:26:02.358Z,0.30
2023-03-10T06:28:33.768Z,0.70
2023-03-10T06:31:01.839Z,1.50
2023-03-10T06:33:29.382Z,0.85
2023-03-10T06:35:56.890Z,0.52
2023-03-10T06:38:24.039Z,0.70
2023-03-10T06:40:51.414Z,1.38
2023-03-10T06:43:18.560Z,1.98
2023-03-10T06:45:46.324Z,1.95
2023-03-10T06:48:14.126Z,0.85
2023-03-10T06:50:42.327Z,0.75
2023-03-10T06:53:09.948Z,2.67
2023-03-10T06:55:37.508Z,1.90
2023-03-10T06:58:04.704Z,1.85
2023-03-10T07:00:31.882Z,1.92
2023-03-10T07:02:59.206Z,1.75
2023-03-10T07:05:27.416Z,1.83
2023-03-10T07:07:55.223Z,1.98
2023-03-10T07:10:22.930Z,4.10
2023-03-10T07:12:55.359Z,1.58
2023-03-10T07:15:26.927Z,2.42
2023-03-10T07:17:56.218Z,3.72
2023-03-10T07:20:24.331Z,2.47
2023-03-10T07:22:51.791Z,2.85
2023-03-10T07:25:19.108Z,3.20
2023-03-10T07:27:46.332Z,3.60
2023-03-10T07:30:13.606Z,2.45
2023-03-10T07:32:40.974Z,1.33
2023-03-10T07:35:08.764Z,3.75
2023-03-10T07:37:38.257Z,2.13
2023-03-10T07:40:06.588Z,1.80
2023-03-10T07:42:34.004Z,2.95
2023-03-10T07:45:01.261Z,5.32
2023-03-10T07:47:28.393Z,3.75
2023-03-10T07:49:55.576Z,1.77
2023-03-10T07:52:22.750Z,3.10
2023-03-10T07:54:50.025Z,4.95
2023-03-10T07:57:17.546Z,3.95
2023-03-10T07:59:44.764Z,2.17
2023-03-10T08:02:13.082Z,2.42
2023-03-10T08:04:40.701Z,4.32
2023-03-10T08:07:08.207Z,2.78
2023-03-10T08:09:35.724Z,2.42
2023-03-10T08:12:03.646Z,0.93
2023-03-10T08:14:31.438Z,4.22
2023-03-10T08:16:58.838Z,3.25
2023-03-10T08:19:26.700Z,2.67
2023-03-10T08:21:57.689Z,2.42
2023-03-10T08:24:25.495Z,3.40
2023-03-10T08:26:52.713Z,2.88
2023-03-10T08:29:19.914Z,2.67
2023-03-10T08:31:47.636Z,3.05
2023-03-10T08:34:15.696Z,8.80
2023-03-10T08:36:43.327Z,3.20
2023-03-10T08:39:11.499Z,2.58
2023-03-10T08:41:41.972Z,2.92
2023-03-10T08:44:11.945Z,3.78
2023-03-10T08:46:39.337Z,3.83
2023-03-10T08:49:06.547Z,4.50
2023-03-10T08:51:34.271Z,5.07
2023-03-10T08:54:01.771Z,3.35
2023-03-10T08:56:29.378Z,2.40
2023-03-10T08:58:59.260Z,3.38
2023-03-10T09:01:27.629Z,4.15
2023-03-10T09:03:55.111Z,4.90
2023-03-10T09:06:22.818Z,3.00
2023-03-10T09:08:50.698Z,3.53
2023-03-10T09:11:20.478Z,5.35
2023-03-10T09:13:48.395Z,3.75
2023-03-10T09:16:16.036Z,2.83
2023-03-10T09:18:43.440Z,3.42
2023-03-10T09:21:12.602Z,3.85
2023-03-10T09:23:41.743Z,2.75
2023-03-10T09:26:11.649Z,1.70
2023-03-10T09:28:38.835Z,4.30
2023-03-10T09:31:07.068Z,3.88
2023-03-10T09:33:34.516Z,6.20
2023-03-10T09:36:07.748Z,4.32
2023-03-10T09:41:25.305Z,3.88
2023-03-10T09:44:12.710Z,5.25
2023-03-10T09:46:54.736Z,4.32
2023-03-10T09:49:34.137Z,2.42
2023-03-10T09:52:03.905Z,2.42
2023-03-10T09:54:42.190Z,4.53
2023-03-10T09:57:18.145Z,5.15
2023-03-10T09:59:46.420Z,2.97
2023-03-10T10:02:23.858Z,3.83
2023-03-10T10:04:53.792Z,2.95
2023-03-10T10:07:22.509Z,6.45
2023-03-10T10:10:02.164Z,3.85
2023-03-10T10:12:29.376Z,4.57
2023-03-10T10:14:59.171Z,3.03
2023-03-10T10:17:29.456Z,6.03
2023-03-10T10:19:57.893Z,2.78
2023-03-10T10:22:29.566Z,3.78
2023-03-10T10:25:03.257Z,4.68
2023-03-10T10:27:33.490Z,3.25
2023-03-10T10:30:20.569Z,1.67
2023-03-10T10:32:56.187Z,4.35
2023-03-10T10:35:24.381Z,4.18
2023-03-10T10:38:06.506Z,6.65
2023-03-10T10:40:46.711Z,2.92
2023-03-10T10:43:17.618Z,3.03
2023-03-10T10:45:44.958Z,5.97
2023-03-10T10:48:30.602Z,2.65
2023-03-10T10:50:57.849Z,3.10
2023-03-10T10:53:27.117Z,3.67
2023-03-10T10:56:00.528Z,3.17
2023-03-10T10:58:32.269Z,3.20
2023-03-10T11:01:00.820Z,3.13
2023-03-10T11:03:28.184Z,3.97
2023-03-10T11:05:56.544Z,3.20
2023-03-10T11:08:34.885Z,3.60
2023-03-10T11:11:17.406Z,2.88
2023-03-10T11:13:59.564Z,2.60
2023-03-10T11:16:32.378Z,2.78
2023-03-10T11:19:14.783Z,1.77
2023-03-10T11:21:45.240Z,2.92
2023-03-10T11:24:16.267Z,3.58
2023-03-10T11:27:04.248Z,1.98
2023-03-10T11:29:50.417Z,3.72
2023-03-10T11:32:36.383Z,2.97
2023-03-10T11:35:13.802Z,5.15
2023-03-10T11:37:44.817Z,2.28
2023-03-10T11:40:19.836Z,3.33
2023-03-10T11:42:50.636Z,1.48
2023-03-10T11:45:23.819Z,3.17
2023-03-10T11:48:09.781Z,1.40
2023-03-10T11:50:50.915Z,1.95
2023-03-10T11:53:27.329Z,2.03
2023-03-10T11:55:55.904Z,0.80
2023-03-10T11:58:29.790Z,1.70
2023-03-10T12:00:56.974Z,3.25
2023-03-10T12:03:50.639Z,3.55
2023-03-10T12:06:20.748Z,0.43
2023-03-10T12:08:50.646Z,0.90
2023-03-10T12:11:20.772Z,1.48
2023-03-10T12:13:50.041Z,2.58
2023-03-10T12:16:23.086Z,1.27
2023-03-10T12:18:50.417Z,0.30
2023-03-10T12:21:31.956Z,1.23
2023-03-10T12:24:01.098Z,1.92
2023-03-10T12:26:45.130Z,0.35
2023-03-10T12:29:24.501Z,0.73
2023-03-10T12:31:55.463Z,0.70
2023-03-10T12:34:23.908Z,2.17
2023-03-10T12:37:10.514Z,1.45
2023-03-10T12:39:39.453Z,0.20
2023-03-10T12:42:27.013Z,0.45
2023-03-10T12:44:56.748Z,1.45
2023-03-10T12:47:29.421Z,0.10
2023-03-10T12:50:05.868Z,0.53
2023-03-10T12:52:39.960Z,0.90
2023-03-10T12:55:19.591Z,0.90
2023-03-10T12:58:05.204Z,0.25
2023-03-10T13:00:44.685Z,4.63
2023-03-10T13:03:11.902Z,1.15
2023-03-10T13:05:43.188Z,0.40
2023-03-10T13:08:17.058Z,1.05
2023-03-10T13:10:45.246Z,0.77
2023-03-10T13:13:15.167Z,1.98
2023-03-10T13:15:42.282Z,0.68
2023-03-10T13:18:19.438Z,1.50
2023-03-10T13:20:47.239Z,0.88
2023-03-10T13:23:20.164Z,0.85
2023-03-10T13:25:57.764Z,0.28
2023-03-10T13:28:26.568Z,2.65
2023-03-10T13:31:06.953Z,0.82
2023-03-10T13:33:42.961Z,1.05
2023-03-10T13:36:25.898Z,0.60
2023-03-10T13:38:53.182Z,0.50
2023-03-10T13:41:20.400Z,0.45
2023-03-10T13:43:50.696Z,0.57
2023-03-10T13:46:28.466Z,1.05
2023-03-10T13:48:58.177Z,2.10
2023-03-10T13:51:31.731Z,0.43
2023-03-10T13:54:11.925Z,1.70
2023-03-10T13:56:41.462Z,0.32
2023-03-10T13:59:14.327Z,0.30
2023-03-10T14:01:46.120Z,0.60
2023-03-10T14:04:17.184Z,1.00
2023-03-10T14:06:44.595Z,0.30
2023-03-10T14:09:24.788Z,0.63
2023-03-10T14:11:52.302Z,0.25
2023-03-10T14:14:33.276Z,1.15
2023-03-10T14:17:02.216Z,1.75
2023-03-10T14:19:39.795Z,0.30
2023-03-10T14:22:28.814Z,0.70
2023-03-10T14:24:56.221Z,0.55
2023-03-10T14:27:24.667Z,0.73
2023-03-10T14:29:53.111Z,1.20
2023-03-10T14:32:20.837Z,0.73
2023-03-10T14:34:48.544Z,0.75
2023-03-10T14:37:16.112Z,0.80
2023-03-10T14:39:43.376Z,0.75
2023-03-10T14:42:18.410Z,0.60
2023-03-10T14:44:48.280Z,1.02
2023-03-10T14:47:16.154Z,0.85
2023-03-10T14:49:43.446Z,1.35
2023-03-10T14:52:18.154Z,1.42
2023-03-10T14:54:45.502Z,1.42
2023-03-10T14:57:13.752Z,1.55
2023-03-10T14:59:41.051Z,0.35
2023-03-10T15:02:14.879Z,0.20
2023-03-10T15:04:42.044Z,1.85
2023-03-10T15:07:11.236Z,3.50
2023-03-10T15:09:38.405Z,0.50
2023-03-10T15:12:05.709Z,0.68
2023-03-10T15:14:32.907Z,0.73
2023-03-10T15:17:00.918Z,0.28
2023-03-10T15:19:29.428Z,0.95
2023-03-10T15:21:56.693Z,0.20
2023-03-10T15:24:23.926Z,1.40
2023-03-10T15:26:51.268Z,1.27
2023-03-10T15:29:19.804Z,1.23
2023-03-10T15:31:47.032Z,10.23
2023-03-10T15:34:14.456Z,1.42
2023-03-10T15:36:41.710Z,0.20
2023-03-10T15:39:11.041Z,0.68
2023-03-10T15:41:40.282Z,0.35
2023-03-10T15:44:08.080Z,0.40
2023-03-10T15:46:35.421Z,0.20
2023-03-10T15:49:03.836Z,0.45
2023-03-10T15:51:31.053Z,0.60
2023-03-10T15:53:58.605Z,0.82
2023-03-10T15:56:26.225Z,1.40
2023-03-10T15:58:54.001Z,0.88
2023-03-10T16:01:21.327Z,0.65
2023-03-10T16:03:49.064Z,0.55
2023-03-10T16:06:16.287Z,0.35
2023-03-10T16:08:43.620Z,0.30
2023-03-10T16:11:21.890Z,0.30
2023-03-10T16:13:49.869Z,0.30
2023-03-10T16:16:23.413Z,0.20
2023-03-10T16:18:52.271Z,2.88
2023-03-10T16:21:19.897Z,0.50
2023-03-10T16:23:47.095Z,1.45
2023-03-10T16:26:18.628Z,0.22
2023-03-10T16:28:46.975Z,2.65
2023-03-10T16:31:15.129Z,0.45
2023-03-10T16:33:42.971Z,0.95
2023-03-10T16:36:14.343Z,1.00
2023-03-10T16:38:41.562Z,0.20
2023-03-10T16:41:09.806Z,0.30
2023-03-10T16:43:37.025Z,0.98
2023-03-10T16:46:12.275Z,0.55
2023-03-10T16:48:44.202Z,2.63
2023-03-10T16:51:20.707Z,0.32
2023-03-10T16:53:48.089Z,0.40
2023-03-10T16:56:15.469Z,1.02
2023-03-10T16:58:42.831Z,0.45
2023-03-10T17:01:10.070Z,0.40
2023-03-10T17:03:40.124Z,0.73
2023-03-10T17:06:11.968Z,0.30
2023-03-10T17:08:39.996Z,0.63
2023-03-10T17:11:07.698Z,0.55
2023-03-10T17:13:35.104Z,0.13
2023-03-10T17:16:02.253Z,0.22
2023-03-10T17:18:29.420Z,0.22
2023-03-10T17:20:56.621Z,0.00
2023-03-10T17:23:23.942Z,1.45
2023-03-10T17:25:51.935Z,1.00
2023-03-10T17:28:19.227Z,0.80
2023-03-10T17:30:46.565Z,1.63
2023-03-10T17:33:14.275Z,0.85
2023-03-10T17:35:41.519Z,0.10
2023-03-10T17:38:08.682Z,0.10
2023-03-10T17:40:35.878Z,0.20
2023-03-10T17:43:13.183Z,0.10
2023-03-10T17:45:57.106Z,0.13
2023-03-10T17:48:25.126Z,0.20
2023-03-10T17:50:52.631Z,0.20
2023-03-10T17:53:19.961Z,3.50
2023-03-10T17:55:47.229Z,0.20
2023-03-10T17:58:14.509Z,0.00
2023-03-10T18:00:41.702Z,0.10
2023-03-10T18:03:09.424Z,0.30
2023-03-10T18:05:44.015Z,0.40
2023-03-10T18:08:11.822Z,0.65
2023-03-10T18:10:39.085Z,0.52
2023-03-10T18:13:07.561Z,0.30
2023-03-10T18:15:35.152Z,0.50
2023-03-10T18:18:02.493Z,0.57
2023-03-10T18:20:29.931Z,0.70
2023-03-10T18:22:57.173Z,1.80
2023-03-10T18:25:24.471Z,1.05
2023-03-10T18:27:51.685Z,2.25
2023-03-10T18:30:20.655Z,3.20
2023-03-10T18:32:47.956Z,0.98
2023-03-10T18:35:15.172Z,0.82
2023-03-10T18:37:42.346Z,0.57
2023-03-10T18:40:10.142Z,0.50
2023-03-10T18:42:37.464Z,1.02
2023-03-10T18:45:04.710Z,1.45
2023-03-10T18:47:34.865Z,0.35
2023-03-10T18:50:02.050Z,0.28
2023-03-10T18:52:32.933Z,0.80
2023-03-10T18:55:01.162Z,0.20
2023-03-10T18:57:28.376Z,0.20
2023-03-10T18:59:55.631Z,0.20
2023-03-10T19:02:22.941Z,1.00
2023-03-10T19:04:50.155Z,0.20
2023-03-10T19:07:20.376Z,0.28
2023-03-10T19:09:47.848Z,0.30
2023-03-10T19:12:15.037Z,0.40
2023-03-10T19:14:42.881Z,0.40
2023-03-10T19:17:10.012Z,0.20
2023-03-10T19:19:37.099Z,0.57
2023-03-10T19:22:04.272Z,0.80
2023-03-10T19:24:31.425Z,0.25
2023-03-10T19:26:58.833Z,0.52
2023-03-10T19:29:25.959Z,0.30
2023-03-10T19:31:53.300Z,1.20
2023-03-10T19:34:20.707Z,0.10
2023-03-10T19:36:48.049Z,0.50
2023-03-10T19:39:18.593Z,0.40
2023-03-10T19:41:45.831Z,0.30
2023-03-10T19:44:12.984Z,0.63
2023-03-10T19:46:40.216Z,0.10
2023-03-10T19:49:08.484Z,0.20
2023-03-10T19:51:35.922Z,0.20
2023-03-10T19:54:04.242Z,0.20
2023-03-10T19:56:31.569Z,0.30
2023-03-10T19:58:58.807Z,1.02
2023-03-10T20:01:27.275Z,0.45
2023-03-10T20:03:59.246Z,0.15
2023-03-10T20:06:26.624Z,0.10
2023-03-10T20:08:54.471Z,0.30
2023-03-10T20:11:22.346Z,0.57
2023-03-10T20:13:49.621Z,0.10
2023-03-10T20:16:17.738Z,0.30
2023-03-10T20:18:44.948Z,0.60
2023-03-10T20:21:12.648Z,0.52
2023-03-10T20:23:40.151Z,0.10
2023-03-10T20:26:09.278Z,0.20
2023-03-10T20:28:36.948Z,0.30
2023-03-10T20:31:04.084Z,0.85
2023-03-10T20:33:31.282Z,0.50
2023-03-10T20:35:58.465Z,0.45
2023-03-10T20:38:25.729Z,0.52
2023-03-10T20:40:52.867Z,0.40
2023-03-10T20:43:20.116Z,0.80
2023-03-10T20:45:47.342Z,1.23
2023-03-10T20:48:14.528Z,0.80
2023-03-10T20:50:41.743Z,0.35
2023-03-10T20:53:08.990Z,4.25
2023-03-10T20:55:36.205Z,0.98
2023-03-10T20:58:03.563Z,0.40
2023-03-10T21:00:30.886Z,0.60
2023-03-10T21:02:58.512Z,0.38
2023-03-10T21:05:26.433Z,1.15
2023-03-10T21:07:53.699Z,0.50
2023-03-10T21:10:21.506Z,9.85
2023-03-10T21:12:48.700Z,0.30
2023-03-10T21:15:16.668Z,0.35
2023-03-10T21:17:44.457Z,0.57
2023-03-10T21:20:12.306Z,0.20
2023-03-10T21:22:40.582Z,1.13
2023-03-10T21:25:09.659Z,0.50
2023-03-10T21:27:37.069Z,0.20
2023-03-10T21:30:08.008Z,0.20
2023-03-10T21:32:35.172Z,0.43
2023-03-10T21:35:02.438Z,0.40
2023-03-10T21:37:29.564Z,0.57
2023-03-10T21:39:58.154Z,0.20
2023-03-10T21:42:25.398Z,0.30
2023-03-10T21:44:55.164Z,0.63
2023-03-10T21:47:22.411Z,0.40
2023-03-10T21:49:49.595Z,0.93
2023-03-10T21:52:16.888Z,0.40
2023-03-10T21:54:44.101Z,0.20
2023-03-10T21:57:11.874Z,0.50
2023-03-10T21:59:39.228Z,0.52
2023-03-10T22:02:06.908Z,0.30
2023-03-10T22:04:34.169Z,0.30
2023-03-10T22:07:02.706Z,0.40
2023-03-10T22:09:31.290Z,0.30
2023-03-10T22:11:58.643Z,1.00
2023-03-10T22:14:26.610Z,0.40
2023-03-10T22:16:53.788Z,0.40
2023-03-10T22:19:21.012Z,0.35
2023-03-10T22:21:48.139Z,3.00
2023-03-10T22:24:15.289Z,0.25
2023-03-10T22:26:42.548Z,0.30
2023-03-10T22:29:09.757Z,0.20
2023-03-10T22:31:37.024Z,0.30
2023-03-10T22:34:04.275Z,0.90
2023-03-10T22:36:31.571Z,0.30
2023-03-10T22:38:58.756Z,0.20
2023-03-10T22:41:27.877Z,1.30
2023-03-10T22:43:58.344Z,1.60
2023-03-10T22:46:25.819Z,0.30
2023-03-10T22:48:53.003Z,0.30
2023-03-10T22:51:20.204Z,0.50
2023-03-10T22:53:47.500Z,0.50
2023-03-10T22:56:14.654Z,0.68
2023-03-10T22:58:42.427Z,0.63
2023-03-10T23:01:09.673Z,0.50
2023-03-10T23:03:36.871Z,0.80
2023-03-10T23:06:05.019Z,0.70
2023-03-10T23:08:32.199Z,0.70
2023-03-10T23:10:59.471Z,0.85
2023-03-10T23:13:26.586Z,0.77
2023-03-10T23:15:53.774Z,1.10
2023-03-10T23:18:21.374Z,4.18
2023-03-10T23:20:49.180Z,1.17
2023-03-10T23:23:18.228Z,0.93
2023-03-10T23:25:47.348Z,1.10
2023-03-10T23:28:15.257Z,1.30
2023-03-10T23:30:42.990Z,1.00
2023-03-10T23:33:12.766Z,1.00
2023-03-10T23:35:40.092Z,1.20
2023-03-10T23:38:07.719Z,1.60
2023-03-10T23:40:36.435Z,1.20
2023-03-10T23:43:05.156Z,1.00
2023-03-10T23:45:33.112Z,1.40
2023-03-10T23:48:01.518Z,1.33
2023-03-10T23:50:34.350Z,1.25
2023-03-10T23:53:01.929Z,1.50
2023-03-10T23:55:30.837Z,1.25
2023-03-10T23:57:58.100Z,1.92
